sensor_id;sensor_type;location;lat;lon;timestamp;pressure;altitude;pressure_sealevel;temperature;humidity
45864;BME280;31579;52.354;16.974;2023-05-28T00:00:29;-91.5;;;-146.1;100.0
45864;BME280;31579;52.354;16.974;2023-05-28T00:01:33;-92.2;;;-146.1;100.0
45864;BME280;31579;52.354;16.974;2023-05-28T00:02:37;-92.9;;;-146.1;100.0
45864;BME280;31579;52.354;16.974;2023-05-28T00:03:41;-94.1;;;-146.1;100.0
45864;BME280;31579;52.354;16.974;2023-05-28T00:04:45;-95.0;;;-146.1;100.0
45864;BME280;31579;52.354;16.974;2023-05-28T00:05:49;-92.8;;;-146.1;100.0
45864;BME280;31579;52.354;16.974;2023-05-28T00:06:53;-90.4;;;-146.1;100.0
45864;BME280;31579;52.354;16.974;2023-05-28T00:07:57;-87.5;;;-146.1;100.0
45864;BME280;31579;52.354;16.974;2023-05-28T00:09:01;-85.8;;;-146.1;100.0
45864;BME280;31579;52.354;16.974;2023-05-28T00:10:07;-83.7;;;-146.1;100.0
45864;BME280;31579;52.354;16.974;2023-05-28T00:11:09;-85.8;;;-146.1;100.0
45864;BME280;31579;52.354;16.974;2023-05-28T00:12:13;-88.4;;;-146.1;100.0
45864;BME280;31579;52.354;16.974;2023-05-28T00:13:17;-91.1;;;-146.1;100.0
45864;BME280;31579;52.354;16.974;2023-05-28T00:14:21;-93.2;;;-146.1;100.0
45864;BME280;31579;52.354;16.974;2023-05-28T00:15:25;-95.1;;;-146.1;100.0
45864;BME280;31579;52.354;16.974;2023-05-28T00:16:29;-95.9;;;-146.1;100.0
45864;BME280;31579;52.354;16.974;2023-05-28T00:17:33;-96.5;;;-146.1;100.0
45864;BME280;31579;52.354;16.974;2023-05-28T00:18:37;-96.2;;;-146.1;100.0
45864;BME280;31579;52.354;16.974;2023-05-28T00:19:42;-94.7;;;-146.1;100.0
45864;BME280;31579;52.354;16.974;2023-05-28T00:20:45;-93.5;;;-146.1;100.0
45864;BME280;31579;52.354;16.974;2023-05-28T00:21:49;-89.3;;;-146.1;100.0
45864;BME280;31579;52.354;16.974;2023-05-28T00:22:54;-86.1;;;-146.1;100.0
45864;BME280;31579;52.354;16.974;2023-05-28T00:23:58;-84.6;;;-146.1;100.0
45864;BME280;31579;52.354;16.974;2023-05-28T00:25:08;-79.3;;;-146.1;100.0
45864;BME280;31579;52.354;16.974;2023-05-28T00:26:12;-78.0;;;-146.1;100.0
45864;BME280;31579;52.354;16.974;2023-05-28T00:27:17;-79.2;;;-146.1;100.0
45864;BME280;31579;52.354;16.974;2023-05-28T00:28:21;-81.8;;;-146.1;100.0
45864;BME280;31579;52.354;16.974;2023-05-28T00:29:26;-83.7;;;-146.1;100.0
45864;BME280;31579;52.354;16.974;2023-05-28T00:30:30;-86.8;;;-146.1;100.0
45864;BME280;31579;52.354;16.974;2023-05-28T00:31:34;-87.9;;;-146.1;100.0
45864;BME280;31579;52.354;16.974;2023-05-28T00:32:38;-90.9;;;-146.1;100.0
45864;BME280;31579;52.354;16.974;2023-05-28T00:33:42;-92.3;;;-146.1;100.0
45864;BME280;31579;52.354;16.974;2023-05-28T00:34:46;-95.6;;;-146.1;100.0
45864;BME280;31579;52.354;16.974;2023-05-28T00:35:50;-98.0;;;-146.1;100.0
45864;BME280;31579;52.354;16.974;2023-05-28T00:36:55;-99.1;;;-146.1;100.0
45864;BME280;31579;52.354;16.974;2023-05-28T00:37:58;-101.6;;;-146.1;100.0
45864;BME280;31579;52.354;16.974;2023-05-28T00:39:00;-108.3;;;-146.1;100.0
45864;BME280;31579;52.354;16.974;2023-05-28T00:40:06;-103.9;;;-146.1;100.0
45864;BME280;31579;52.354;16.974;2023-05-28T00:41:10;-103.1;;;-146.1;100.0
45864;BME280;31579;52.354;16.974;2023-05-28T00:42:15;-103.0;;;-146.1;100.0
45864;BME280;31579;52.354;16.974;2023-05-28T00:43:18;-102.5;;;-146.1;100.0
45864;BME280;31579;52.354;16.974;2023-05-28T00:44:23;-101.0;;;-146.1;100.0
45864;BME280;31579;52.354;16.974;2023-05-28T00:45:27;-102.1;;;-146.1;100.0
45864;BME280;31579;52.354;16.974;2023-05-28T00:46:31;-102.7;;;-146.1;100.0
45864;BME280;31579;52.354;16.974;2023-05-28T00:47:35;-103.7;;;-146.1;100.0
45864;BME280;31579;52.354;16.974;2023-05-28T00:48:39;-104.5;;;-146.1;100.0
45864;BME280;31579;52.354;16.974;2023-05-28T00:49:43;-105.3;;;-146.1;100.0
45864;BME280;31579;52.354;16.974;2023-05-28T00:50:47;-105.8;;;-146.1;100.0
45864;BME280;31579;52.354;16.974;2023-05-28T00:51:51;-105.8;;;-146.1;100.0
45864;BME280;31579;52.354;16.974;2023-05-28T00:53:04;-102.0;;;-146.1;100.0
45864;BME280;31579;52.354;16.974;2023-05-28T00:54:08;-104.0;;;-146.1;100.0
45864;BME280;31579;52.354;16.974;2023-05-28T00:56:16;-105.0;;;-146.1;100.0
45864;BME280;31579;52.354;16.974;2023-05-28T00:57:20;-104.4;;;-146.1;100.0
45864;BME280;31579;52.354;16.974;2023-05-28T00:58:23;-102.3;;;-146.1;100.0
45864;BME280;31579;52.354;16.974;2023-05-28T00:59:28;-104.5;;;-146.1;100.0
45864;BME280;31579;52.354;16.974;2023-05-28T01:00:33;-105.9;;;-146.1;100.0
45864;BME280;31579;52.354;16.974;2023-05-28T01:01:36;-105.3;;;-146.1;100.0
45864;BME280;31579;52.354;16.974;2023-05-28T01:02:40;-108.3;;;-146.1;100.0
45864;BME280;31579;52.354;16.974;2023-05-28T01:03:44;-109.7;;;-146.1;100.0
45864;BME280;31579;52.354;16.974;2023-05-28T01:04:48;-109.1;;;-146.1;100.0
45864;BME280;31579;52.354;16.974;2023-05-28T01:05:52;-108.8;;;-146.1;100.0
45864;BME280;31579;52.354;16.974;2023-05-28T01:06:55;-108.3;;;-146.1;100.0
45864;BME280;31579;52.354;16.974;2023-05-28T01:07:59;-113.1;;;-146.1;100.0
45864;BME280;31579;52.354;16.974;2023-05-28T01:09:01;-114.0;;;-146.1;100.0
45864;BME280;31579;52.354;16.974;2023-05-28T01:10:04;-111.7;;;-146.1;100.0
45864;BME280;31579;52.354;16.974;2023-05-28T01:11:09;-108.3;;;-146.1;100.0
45864;BME280;31579;52.354;16.974;2023-05-28T01:12:11;-107.4;;;-146.1;100.0
45864;BME280;31579;52.354;16.974;2023-05-28T01:13:16;-106.8;;;-146.1;100.0
45864;BME280;31579;52.354;16.974;2023-05-28T01:14:20;-107.3;;;-146.1;100.0
45864;BME280;31579;52.354;16.974;2023-05-28T01:15:24;-107.8;;;-146.1;100.0
45864;BME280;31579;52.354;16.974;2023-05-28T01:16:28;-109.0;;;-146.1;100.0
45864;BME280;31579;52.354;16.974;2023-05-28T01:17:32;-111.0;;;-146.1;100.0
45864;BME280;31579;52.354;16.974;2023-05-28T01:18:36;-111.8;;;-146.1;100.0
45864;BME280;31579;52.354;16.974;2023-05-28T01:19:40;-112.9;;;-146.1;100.0
45864;BME280;31579;52.354;16.974;2023-05-28T01:20:44;-114.1;;;-146.1;100.0
45864;BME280;31579;52.354;16.974;2023-05-28T01:21:48;-115.2;;;-146.1;100.0
45864;BME280;31579;52.354;16.974;2023-05-28T01:22:53;-116.2;;;-146.1;100.0
45864;BME280;31579;52.354;16.974;2023-05-28T01:23:56;-117.0;;;-146.1;100.0
45864;BME280;31579;52.354;16.974;2023-05-28T01:24:58;-121.6;;;-146.1;100.0
45864;BME280;31579;52.354;16.974;2023-05-28T01:26:01;-121.7;;;-146.1;100.0
45864;BME280;31579;52.354;16.974;2023-05-28T01:27:06;-120.6;;;-146.1;100.0
45864;BME280;31579;52.354;16.974;2023-05-28T01:28:11;-120.7;;;-146.1;100.0
45864;BME280;31579;52.354;16.974;2023-05-28T01:29:14;-120.9;;;-146.1;100.0
45864;BME280;31579;52.354;16.974;2023-05-28T01:30:19;-120.9;;;-146.1;100.0
45864;BME280;31579;52.354;16.974;2023-05-28T01:31:23;-120.9;;;-146.1;100.0
45864;BME280;31579;52.354;16.974;2023-05-28T01:32:27;-120.9;;;-146.1;100.0
45864;BME280;31579;52.354;16.974;2023-05-28T01:33:31;-121.2;;;-146.1;100.0
45864;BME280;31579;52.354;16.974;2023-05-28T01:34:35;-121.7;;;-146.1;100.0
45864;BME280;31579;52.354;16.974;2023-05-28T01:35:39;-121.3;;;-146.1;100.0
45864;BME280;31579;52.354;16.974;2023-05-28T01:37:48;-120.4;;;-146.1;100.0
45864;BME280;31579;52.354;16.974;2023-05-28T01:38:51;-120.4;;;-146.1;100.0
45864;BME280;31579;52.354;16.974;2023-05-28T01:39:55;-120.7;;;-146.1;100.0
45864;BME280;31579;52.354;16.974;2023-05-28T01:40:58;-122.7;;;-146.1;100.0
45864;BME280;31579;52.354;16.974;2023-05-28T01:42:01;-125.7;;;-146.1;100.0
45864;BME280;31579;52.354;16.974;2023-05-28T01:43:04;-124.5;;;-146.1;100.0
45864;BME280;31579;52.354;16.974;2023-05-28T01:44:08;-122.8;;;-146.1;100.0
45864;BME280;31579;52.354;16.974;2023-05-28T01:45:12;-121.9;;;-146.1;100.0
45864;BME280;31579;52.354;16.974;2023-05-28T01:46:16;-121.1;;;-146.1;100.0
45864;BME280;31579;52.354;16.974;2023-05-28T01:47:20;-120.9;;;-146.1;100.0
45864;BME280;31579;52.354;16.974;2023-05-28T01:48:24;-119.9;;;-146.1;100.0
45864;BME280;31579;52.354;16.974;2023-05-28T01:49:28;-119.1;;;-146.1;100.0
45864;BME280;31579;52.354;16.974;2023-05-28T01:50:32;-119.2;;;-146.1;100.0
45864;BME280;31579;52.354;16.974;2023-05-28T01:51:36;-119.0;;;-146.1;100.0
45864;BME280;31579;52.354;16.974;2023-05-28T01:52:40;-118.5;;;-146.1;100.0
45864;BME280;31579;52.354;16.974;2023-05-28T01:53:44;-117.7;;;-146.1;100.0
45864;BME280;31579;52.354;16.974;2023-05-28T01:54:48;-115.9;;;-146.1;100.0
45864;BME280;31579;52.354;16.974;2023-05-28T01:55:52;-114.8;;;-146.1;100.0
45864;BME280;31579;52.354;16.974;2023-05-28T01:56:56;-116.6;;;-146.1;100.0
45864;BME280;31579;52.354;16.974;2023-05-28T01:57:59;-121.2;;;-146.1;100.0
45864;BME280;31579;52.354;16.974;2023-05-28T01:59:01;-123.7;;;-146.1;100.0
45864;BME280;31579;52.354;16.974;2023-05-28T02:00:04;-124.0;;;-146.1;100.0
45864;BME280;31579;52.354;16.974;2023-05-28T02:02:12;-124.0;;;-146.1;100.0
45864;BME280;31579;52.354;16.974;2023-05-28T02:03:22;-123.8;;;-146.1;100.0
45864;BME280;31579;52.354;16.974;2023-05-28T02:04:27;-124.1;;;-146.1;100.0
45864;BME280;31579;52.354;16.974;2023-05-28T02:05:31;-124.7;;;-146.1;100.0
45864;BME280;31579;52.354;16.974;2023-05-28T02:06:35;-124.8;;;-146.1;100.0
45864;BME280;31579;52.354;16.974;2023-05-28T02:07:39;-125.0;;;-146.1;100.0
45864;BME280;31579;52.354;16.974;2023-05-28T02:08:43;-124.9;;;-146.1;100.0
45864;BME280;31579;52.354;16.974;2023-05-28T02:09:47;-125.4;;;-146.1;100.0
45864;BME280;31579;52.354;16.974;2023-05-28T02:10:51;-125.9;;;-146.1;100.0
45864;BME280;31579;52.354;16.974;2023-05-28T02:11:55;-126.4;;;-146.1;100.0
45864;BME280;31579;52.354;16.974;2023-05-28T02:12:59;-127.3;;;-146.1;100.0
45864;BME280;31579;52.354;16.974;2023-05-28T02:14:01;-130.3;;;-146.1;100.0
45864;BME280;31579;52.354;16.974;2023-05-28T02:15:06;-128.5;;;-146.1;100.0
45864;BME280;31579;52.354;16.974;2023-05-28T02:16:10;-128.2;;;-146.1;100.0
45864;BME280;31579;52.354;16.974;2023-05-28T02:17:14;-127.9;;;-146.1;100.0
45864;BME280;31579;52.354;16.974;2023-05-28T02:18:19;-127.1;;;-146.1;100.0
45864;BME280;31579;52.354;16.974;2023-05-28T02:19:23;-126.2;;;-146.1;100.0
45864;BME280;31579;52.354;16.974;2023-05-28T02:20:27;-125.2;;;-146.1;100.0
45864;BME280;31579;52.354;16.974;2023-05-28T02:21:31;-125.0;;;-146.1;100.0
45864;BME280;31579;52.354;16.974;2023-05-28T02:22:35;-124.8;;;-146.1;100.0
45864;BME280;31579;52.354;16.974;2023-05-28T02:23:42;-125.3;;;-146.1;100.0
45864;BME280;31579;52.354;16.974;2023-05-28T02:24:44;-126.1;;;-146.1;100.0
45864;BME280;31579;52.354;16.974;2023-05-28T02:25:48;-126.4;;;-146.1;100.0
45864;BME280;31579;52.354;16.974;2023-05-28T02:26:52;-127.0;;;-146.1;100.0
45864;BME280;31579;52.354;16.974;2023-05-28T02:27:56;-127.1;;;-146.1;100.0
45864;BME280;31579;52.354;16.974;2023-05-28T02:29:00;-126.6;;;-146.1;100.0
45864;BME280;31579;52.354;16.974;2023-05-28T02:30:12;-124.2;;;-146.1;100.0
45864;BME280;31579;52.354;16.974;2023-05-28T02:31:16;-124.4;;;-146.1;100.0
45864;BME280;31579;52.354;16.974;2023-05-28T02:32:20;-124.5;;;-146.1;100.0
45864;BME280;31579;52.354;16.974;2023-05-28T02:33:24;-124.7;;;-146.1;100.0
45864;BME280;31579;52.354;16.974;2023-05-28T02:34:28;-125.1;;;-146.1;100.0
45864;BME280;31579;52.354;16.974;2023-05-28T02:35:19;-127.2;;;-146.1;100.0
45864;BME280;31579;52.354;16.974;2023-05-28T02:36:23;-125.9;;;-146.1;100.0
45864;BME280;31579;52.354;16.974;2023-05-28T02:37:27;-126.2;;;-146.1;100.0
45864;BME280;31579;52.354;16.974;2023-05-28T02:38:31;-127.9;;;-146.1;100.0
45864;BME280;31579;52.354;16.974;2023-05-28T02:39:35;-128.8;;;-146.1;100.0
45864;BME280;31579;52.354;16.974;2023-05-28T02:40:39;-129.2;;;-146.1;100.0
45864;BME280;31579;52.354;16.974;2023-05-28T02:41:43;-129.3;;;-146.1;100.0
45864;BME280;31579;52.354;16.974;2023-05-28T02:42:47;-129.6;;;-146.1;100.0
45864;BME280;31579;52.354;16.974;2023-05-28T02:43:51;-129.9;;;-146.1;100.0
45864;BME280;31579;52.354;16.974;2023-05-28T02:44:55;-130.1;;;-146.1;100.0
45864;BME280;31579;52.354;16.974;2023-05-28T02:45:59;-130.2;;;-146.1;100.0
45864;BME280;31579;52.354;16.974;2023-05-28T02:47:03;-130.3;;;-146.1;100.0
45864;BME280;31579;52.354;16.974;2023-05-28T02:48:07;-131.0;;;-146.1;100.0
45864;BME280;31579;52.354;16.974;2023-05-28T02:49:11;-131.3;;;-146.1;100.0
45864;BME280;31579;52.354;16.974;2023-05-28T02:50:29;-120.7;;;-146.1;100.0
45864;BME280;31579;52.354;16.974;2023-05-28T02:51:34;-124.9;;;-146.1;100.0
45864;BME280;31579;52.354;16.974;2023-05-28T02:52:38;-125.7;;;-146.1;100.0
45864;BME280;31579;52.354;16.974;2023-05-28T02:53:43;-126.2;;;-146.1;100.0
45864;BME280;31579;52.354;16.974;2023-05-28T02:54:47;-126.7;;;-146.1;100.0
45864;BME280;31579;52.354;16.974;2023-05-28T02:55:52;-127.8;;;-146.1;100.0
45864;BME280;31579;52.354;16.974;2023-05-28T02:56:56;-129.5;;;-146.1;100.0
45864;BME280;31579;52.354;16.974;2023-05-28T02:58:00;-130.7;;;-146.1;100.0
45864;BME280;31579;52.354;16.974;2023-05-28T02:59:05;-131.2;;;-146.1;100.0
45864;BME280;31579;52.354;16.974;2023-05-28T03:00:10;-131.6;;;-146.1;100.0
45864;BME280;31579;52.354;16.974;2023-05-28T03:01:13;-131.6;;;-146.1;100.0
45864;BME280;31579;52.354;16.974;2023-05-28T03:02:17;-132.3;;;-146.1;100.0
45864;BME280;31579;52.354;16.974;2023-05-28T03:03:21;-132.6;;;-146.1;100.0
45864;BME280;31579;52.354;16.974;2023-05-28T03:04:25;-132.8;;;-146.1;100.0
45864;BME280;31579;52.354;16.974;2023-05-28T03:05:29;-133.5;;;-146.1;100.0
45864;BME280;31579;52.354;16.974;2023-05-28T03:06:33;-134.2;;;-146.1;100.0
45864;BME280;31579;52.354;16.974;2023-05-28T03:07:37;-134.3;;;-146.1;100.0
45864;BME280;31579;52.354;16.974;2023-05-28T03:08:41;-135.0;;;-146.1;100.0
45864;BME280;31579;52.354;16.974;2023-05-28T03:09:45;-135.6;;;-146.1;100.0
45864;BME280;31579;52.354;16.974;2023-05-28T03:10:49;-136.6;;;-146.1;100.0
45864;BME280;31579;52.354;16.974;2023-05-28T03:11:53;-137.1;;;-146.1;100.0
45864;BME280;31579;52.354;16.974;2023-05-28T03:12:57;-137.1;;;-146.1;100.0
45864;BME280;31579;52.354;16.974;2023-05-28T03:14:01;-138.1;;;-146.1;100.0
45864;BME280;31579;52.354;16.974;2023-05-28T03:15:19;-137.5;;;-146.1;100.0
45864;BME280;31579;52.354;16.974;2023-05-28T03:16:23;-137.4;;;-146.1;100.0
45864;BME280;31579;52.354;16.974;2023-05-28T03:17:27;-137.4;;;-146.1;100.0
45864;BME280;31579;52.354;16.974;2023-05-28T03:18:31;-136.8;;;-146.1;100.0
45864;BME280;31579;52.354;16.974;2023-05-28T03:19:35;-136.1;;;-146.1;100.0
45864;BME280;31579;52.354;16.974;2023-05-28T03:20:39;-135.2;;;-146.1;100.0
45864;BME280;31579;52.354;16.974;2023-05-28T03:21:43;-134.2;;;-146.1;100.0
45864;BME280;31579;52.354;16.974;2023-05-28T03:22:48;-133.0;;;-146.1;100.0
45864;BME280;31579;52.354;16.974;2023-05-28T03:23:51;-132.5;;;-146.1;100.0
45864;BME280;31579;52.354;16.974;2023-05-28T03:24:55;-132.2;;;-146.1;100.0
45864;BME280;31579;52.354;16.974;2023-05-28T03:25:59;-132.0;;;-146.1;100.0
45864;BME280;31579;52.354;16.974;2023-05-28T03:27:03;-132.1;;;-146.1;100.0
45864;BME280;31579;52.354;16.974;2023-05-28T03:28:07;-132.1;;;-146.1;100.0
45864;BME280;31579;52.354;16.974;2023-05-28T03:29:25;-131.4;;;-146.1;100.0
45864;BME280;31579;52.354;16.974;2023-05-28T03:30:29;-131.3;;;-146.1;100.0
45864;BME280;31579;52.354;16.974;2023-05-28T03:31:36;-131.8;;;-146.1;100.0
45864;BME280;31579;52.354;16.974;2023-05-28T03:32:37;-132.3;;;-146.1;100.0
45864;BME280;31579;52.354;16.974;2023-05-28T03:33:41;-133.2;;;-146.1;100.0
45864;BME280;31579;52.354;16.974;2023-05-28T03:34:45;-133.3;;;-146.1;100.0
45864;BME280;31579;52.354;16.974;2023-05-28T03:35:49;-133.0;;;-146.1;100.0
45864;BME280;31579;52.354;16.974;2023-05-28T03:36:53;-132.4;;;-146.1;100.0
45864;BME280;31579;52.354;16.974;2023-05-28T03:37:57;-131.4;;;-146.1;100.0
45864;BME280;31579;52.354;16.974;2023-05-28T03:39:01;-130.5;;;-146.1;100.0
45864;BME280;31579;52.354;16.974;2023-05-28T03:40:06;-130.2;;;-146.1;100.0
45864;BME280;31579;52.354;16.974;2023-05-28T03:41:10;-129.7;;;-146.1;100.0
45864;BME280;31579;52.354;16.974;2023-05-28T03:42:14;-130.1;;;-146.1;100.0
45864;BME280;31579;52.354;16.974;2023-05-28T03:43:18;-130.4;;;-146.1;100.0
45864;BME280;31579;52.354;16.974;2023-05-28T03:44:21;-127.1;;;-146.1;100.0
45864;BME280;31579;52.354;16.974;2023-05-28T03:45:25;-133.1;;;-146.1;100.0
45864;BME280;31579;52.354;16.974;2023-05-28T03:46:29;-133.9;;;-146.1;100.0
45864;BME280;31579;52.354;16.974;2023-05-28T03:47:33;-133.8;;;-146.1;100.0
45864;BME280;31579;52.354;16.974;2023-05-28T03:48:37;-133.0;;;-146.1;100.0
45864;BME280;31579;52.354;16.974;2023-05-28T03:49:41;-132.0;;;-146.1;100.0
45864;BME280;31579;52.354;16.974;2023-05-28T03:50:46;-131.2;;;-146.1;100.0
45864;BME280;31579;52.354;16.974;2023-05-28T03:51:50;-130.4;;;-146.1;100.0
45864;BME280;31579;52.354;16.974;2023-05-28T03:52:54;-129.6;;;-146.1;100.0
45864;BME280;31579;52.354;16.974;2023-05-28T03:53:58;-129.2;;;-146.1;100.0
45864;BME280;31579;52.354;16.974;2023-05-28T03:55:02;-128.5;;;-146.1;100.0
45864;BME280;31579;52.354;16.974;2023-05-28T03:56:06;-128.0;;;-146.1;100.0
45864;BME280;31579;52.354;16.974;2023-05-28T03:57:10;-127.6;;;-146.1;100.0
45864;BME280;31579;52.354;16.974;2023-05-28T03:58:14;-126.0;;;-146.1;100.0
45864;BME280;31579;52.354;16.974;2023-05-28T03:59:18;-125.3;;;-146.1;100.0
45864;BME280;31579;52.354;16.974;2023-05-28T04:00:22;-123.9;;;-146.1;100.0
45864;BME280;31579;52.354;16.974;2023-05-28T04:01:26;-122.8;;;-146.1;100.0
45864;BME280;31579;52.354;16.974;2023-05-28T04:02:31;-121.4;;;-146.1;100.0
45864;BME280;31579;52.354;16.974;2023-05-28T04:03:35;-119.6;;;-146.1;100.0
45864;BME280;31579;52.354;16.974;2023-05-28T04:04:39;-118.3;;;-146.1;100.0
45864;BME280;31579;52.354;16.974;2023-05-28T04:05:43;-118.0;;;-146.1;100.0
45864;BME280;31579;52.354;16.974;2023-05-28T04:06:47;-117.2;;;-146.1;100.0
45864;BME280;31579;52.354;16.974;2023-05-28T04:07:51;-115.4;;;-146.1;100.0
45864;BME280;31579;52.354;16.974;2023-05-28T04:08:55;-113.2;;;-146.1;100.0
45864;BME280;31579;52.354;16.974;2023-05-28T04:10:00;-109.0;;;-146.1;100.0
45864;BME280;31579;52.354;16.974;2023-05-28T04:11:12;-103.5;;;-146.1;100.0
45864;BME280;31579;52.354;16.974;2023-05-28T04:12:16;-100.8;;;-146.1;100.0
45864;BME280;31579;52.354;16.974;2023-05-28T04:13:20;-95.6;;;-146.1;100.0
45864;BME280;31579;52.354;16.974;2023-05-28T04:14:24;-89.7;;;-146.1;100.0
45864;BME280;31579;52.354;16.974;2023-05-28T04:15:28;-86.6;;;-146.1;100.0
45864;BME280;31579;52.354;16.974;2023-05-28T04:16:32;-83.6;;;-146.1;100.0
45864;BME280;31579;52.354;16.974;2023-05-28T04:17:36;-75.8;;;-146.1;100.0
45864;BME280;31579;52.354;16.974;2023-05-28T04:18:40;-69.9;;;-146.1;100.0
45864;BME280;31579;52.354;16.974;2023-05-28T04:19:44;-60.9;;;-146.1;100.0
45864;BME280;31579;52.354;16.974;2023-05-28T04:20:48;-56.6;;;-146.1;100.0
45864;BME280;31579;52.354;16.974;2023-05-28T04:21:52;-51.7;;;-146.1;100.0
45864;BME280;31579;52.354;16.974;2023-05-28T04:22:56;-47.0;;;-146.1;100.0
45864;BME280;31579;52.354;16.974;2023-05-28T04:24:01;-48.0;;;-146.1;100.0
45864;BME280;31579;52.354;16.974;2023-05-28T04:25:07;-39.0;;;-146.1;100.0
45864;BME280;31579;52.354;16.974;2023-05-28T04:26:18;-27.4;;;-146.1;100.0
45864;BME280;31579;52.354;16.974;2023-05-28T04:27:22;-15.4;;;-146.1;100.0
45864;BME280;31579;52.354;16.974;2023-05-28T04:28:26;4.0;;;-146.1;100.0
45864;BME280;31579;52.354;16.974;2023-05-28T04:29:30;39.6;;;-146.1;100.0
45864;BME280;31579;52.354;16.974;2023-05-28T04:30:34;27.2;;;-146.1;100.0
45864;BME280;31579;52.354;16.974;2023-05-28T04:31:38;48.4;;;-146.1;100.0
45864;BME280;31579;52.354;16.974;2023-05-28T04:32:42;63.9;;;-146.1;100.0
45864;BME280;31579;52.354;16.974;2023-05-28T04:33:46;81.0;;;-146.1;100.0
45864;BME280;31579;52.354;16.974;2023-05-28T04:34:50;143.3;;;-146.1;100.0
45864;BME280;31579;52.354;16.974;2023-05-28T04:35:54;190.6;;;-146.1;100.0
45864;BME280;31579;52.354;16.974;2023-05-28T04:36:58;242.9;;;-146.1;100.0
45864;BME280;31579;52.354;16.974;2023-05-28T04:38:02;279.2;;;-146.1;100.0
45864;BME280;31579;52.354;16.974;2023-05-28T04:39:06;341.4;;;-146.1;100.0
45864;BME280;31579;52.354;16.974;2023-05-28T04:40:10;485.4;;;-146.1;100.0
45864;BME280;31579;52.354;16.974;2023-05-28T04:41:14;644.8;;;-146.1;100.0
45864;BME280;31579;52.354;16.974;2023-05-28T04:42:18;923.4;;;-146.1;100.0
45864;BME280;31579;52.354;16.974;2023-05-28T04:43:22;1075.5;;;-146.1;100.0
45864;BME280;31579;52.354;16.974;2023-05-28T04:44:26;1079.3;;;-146.1;100.0
45864;BME280;31579;52.354;16.974;2023-05-28T04:45:30;1077.0;;;-146.1;100.0
45864;BME280;31579;52.354;16.974;2023-05-28T04:46:34;1070.3;;;-146.1;100.0
45864;BME280;31579;52.354;16.974;2023-05-28T04:47:38;1056.0;;;-146.1;100.0
45864;BME280;31579;52.354;16.974;2023-05-28T04:48:42;1050.9;;;-146.1;100.0
45864;BME280;31579;52.354;16.974;2023-05-28T04:49:46;1035.7;;;-146.1;100.0
45864;BME280;31579;52.354;16.974;2023-05-28T04:50:50;1028.1;;;-146.1;100.0
45864;BME280;31579;52.354;16.974;2023-05-28T04:51:54;999.2;;;-146.1;100.0
45864;BME280;31579;52.354;16.974;2023-05-28T04:52:58;994.0;;;-146.1;100.0
45864;BME280;31579;52.354;16.974;2023-05-28T04:54:09;956.0;;;-146.1;100.0
45864;BME280;31579;52.354;16.974;2023-05-28T04:55:13;921.8;;;-146.1;100.0
45864;BME280;31579;52.354;16.974;2023-05-28T04:56:17;890.1;;;-146.1;100.0
45864;BME280;31579;52.354;16.974;2023-05-28T04:57:22;871.7;;;-146.1;100.0
45864;BME280;31579;52.354;16.974;2023-05-28T04:58:26;865.6;;;-146.1;100.0
45864;BME280;31579;52.354;16.974;2023-05-28T04:59:30;863.4;;;-146.1;100.0
45864;BME280;31579;52.354;16.974;2023-05-28T05:00:34;816.2;;;-146.1;100.0
45864;BME280;31579;52.354;16.974;2023-05-28T05:01:38;829.4;;;-146.1;100.0
45864;BME280;31579;52.354;16.974;2023-05-28T05:02:43;785.5;;;-146.1;100.0
45864;BME280;31579;52.354;16.974;2023-05-28T05:03:47;807.9;;;-146.1;100.0
45864;BME280;31579;52.354;16.974;2023-05-28T05:04:51;760.5;;;-146.1;100.0
45864;BME280;31579;52.354;16.974;2023-05-28T05:05:56;730.0;;;-146.1;100.0
45864;BME280;31579;52.354;16.974;2023-05-28T05:07:00;719.4;;;-146.1;100.0
45864;BME280;31579;52.354;16.974;2023-05-28T05:08:04;734.3;;;-146.1;100.0
45864;BME280;31579;52.354;16.974;2023-05-28T05:09:06;790.5;;;-146.1;100.0
45864;BME280;31579;52.354;16.974;2023-05-28T05:10:10;666.6;;;-146.1;100.0
45864;BME280;31579;52.354;16.974;2023-05-28T05:11:14;661.2;;;-146.1;100.0
45864;BME280;31579;52.354;16.974;2023-05-28T05:12:18;645.0;;;-146.1;100.0
45864;BME280;31579;52.354;16.974;2023-05-28T05:13:22;619.1;;;-146.1;100.0
45864;BME280;31579;52.354;16.974;2023-05-28T05:14:26;626.2;;;-146.1;100.0
45864;BME280;31579;52.354;16.974;2023-05-28T05:15:30;602.6;;;-146.1;100.0
45864;BME280;31579;52.354;16.974;2023-05-28T05:16:34;587.3;;;-146.1;100.0
45864;BME280;31579;52.354;16.974;2023-05-28T05:17:38;604.0;;;-146.1;100.0
45864;BME280;31579;52.354;16.974;2023-05-28T05:18:42;599.2;;;-146.1;100.0
45864;BME280;31579;52.354;16.974;2023-05-28T05:19:46;594.0;;;-146.1;100.0
45864;BME280;31579;52.354;16.974;2023-05-28T05:20:51;582.3;;;-146.1;100.0
45864;BME280;31579;52.354;16.974;2023-05-28T05:21:55;591.0;;;-146.1;100.0
45864;BME280;31579;52.354;16.974;2023-05-28T05:22:59;586.5;;;-146.1;100.0
45864;BME280;31579;52.354;16.974;2023-05-28T05:24:03;584.3;;;-146.1;100.0
45864;BME280;31579;52.354;16.974;2023-05-28T05:25:07;569.0;;;-146.1;100.0
45864;BME280;31579;52.354;16.974;2023-05-28T05:26:11;571.4;;;-146.1;100.0
45864;BME280;31579;52.354;16.974;2023-05-28T05:27:15;576.5;;;-146.1;100.0
45864;BME280;31579;52.354;16.974;2023-05-28T05:28:19;582.0;;;-146.1;100.0
45864;BME280;31579;52.354;16.974;2023-05-28T05:29:23;584.5;;;-146.1;100.0
45864;BME280;31579;52.354;16.974;2023-05-28T05:30:27;569.8;;;-146.1;100.0
45864;BME280;31579;52.354;16.974;2023-05-28T05:31:31;560.3;;;-146.1;100.0
45864;BME280;31579;52.354;16.974;2023-05-28T05:32:35;568.9;;;-146.1;100.0
45864;BME280;31579;52.354;16.974;2023-05-28T05:33:39;567.1;;;-146.1;100.0
45864;BME280;31579;52.354;16.974;2023-05-28T05:34:41;600.7;;;-146.1;100.0
45864;BME280;31579;52.354;16.974;2023-05-28T05:35:46;552.2;;;-146.1;100.0
45864;BME280;31579;52.354;16.974;2023-05-28T05:36:50;550.1;;;-146.1;100.0
45864;BME280;31579;52.354;16.974;2023-05-28T05:37:54;550.2;;;-146.1;100.0
45864;BME280;31579;52.354;16.974;2023-05-28T05:38:59;545.8;;;-146.1;100.0
45864;BME280;31579;52.354;16.974;2023-05-28T05:40:03;545.2;;;-146.1;100.0
45864;BME280;31579;52.354;16.974;2023-05-28T05:41:07;545.3;;;-146.1;100.0
45864;BME280;31579;52.354;16.974;2023-05-28T05:42:11;545.0;;;-146.1;100.0
45864;BME280;31579;52.354;16.974;2023-05-28T05:43:15;543.6;;;-146.1;100.0
45864;BME280;31579;52.354;16.974;2023-05-28T05:44:19;543.1;;;-146.1;100.0
45864;BME280;31579;52.354;16.974;2023-05-28T05:45:23;541.4;;;-146.1;100.0